createdAt,value
2019-02-04T00:02:22.326Z,6.53
2019-02-04T00:04:53.366Z,6.40
2019-02-04T00:07:24.337Z,6.47
2019-02-04T00:09:55.420Z,6.93
2019-02-04T00:12:26.081Z,7.57
2019-02-04T00:14:57.808Z,7.80
2019-02-04T00:17:28.346Z,8.07
2019-02-04T00:19:59.577Z,8.73
2019-02-04T00:22:30.228Z,6.53
2019-02-04T00:25:00.953Z,7.27
2019-02-04T00:27:31.730Z,6.90
2019-02-04T00:30:02.615Z,7.00
2019-02-04T00:32:33.709Z,6.13
2019-02-04T00:35:05.157Z,6.07
2019-02-04T00:37:35.794Z,6.33
2019-02-04T00:40:09.694Z,6.73
2019-02-04T00:42:40.313Z,6.37
2019-02-04T00:45:11.065Z,7.10
2019-02-04T00:47:41.664Z,6.37
2019-02-04T00:50:12.864Z,6.50
2019-02-04T00:52:43.746Z,6.53
2019-02-04T00:55:14.905Z,6.23
2019-02-04T00:57:45.872Z,6.13
2019-02-04T01:00:23.492Z,6.60
2019-02-04T01:02:54.488Z,6.90
2019-02-04T01:05:25.409Z,6.37
2019-02-04T01:07:56.283Z,6.27
2019-02-04T01:10:27.457Z,5.97
2019-02-04T01:12:58.721Z,7.97
2019-02-04T01:15:29.283Z,12.57
2019-02-04T01:17:59.813Z,10.07
2019-02-04T01:20:31.032Z,7.97
2019-02-04T01:23:01.562Z,8.87
2019-02-04T01:25:32.326Z,6.97
2019-02-04T01:28:03.015Z,6.80
2019-02-04T01:30:33.875Z,7.57
2019-02-04T01:33:04.736Z,6.27
2019-02-04T01:35:35.361Z,6.03
2019-02-04T01:38:06.037Z,6.43
2019-02-04T01:40:36.588Z,6.93
2019-02-04T01:43:07.217Z,5.97
2019-02-04T01:45:37.859Z,6.07
2019-02-04T01:48:08.721Z,6.63
2019-02-04T01:50:39.461Z,6.13
2019-02-04T01:53:10.225Z,6.87
2019-02-04T01:55:40.742Z,5.90
2019-02-04T01:58:11.298Z,6.10
2019-02-04T02:00:42.377Z,6.73
2019-02-04T02:03:12.883Z,7.03
2019-02-04T02:05:43.666Z,7.20
2019-02-04T02:08:14.282Z,7.00
2019-02-04T02:10:44.977Z,6.80
2019-02-04T02:13:16.006Z,6.50
2019-02-04T02:15:46.652Z,6.37
2019-02-04T02:18:17.335Z,6.50
2019-02-04T02:20:48.053Z,6.73
2019-02-04T02:23:18.798Z,7.00
2019-02-04T02:25:50.030Z,6.73
2019-02-04T02:28:20.750Z,6.53
2019-02-04T02:30:51.465Z,5.77
2019-02-04T02:33:22.490Z,6.50
2019-02-04T02:35:53.257Z,5.27
2019-02-04T02:38:24.175Z,6.50
2019-02-04T02:40:54.849Z,6.70
2019-02-04T02:43:25.713Z,6.30
2019-02-04T02:45:56.360Z,8.10
2019-02-04T02:48:28.097Z,7.03
2019-02-04T02:50:58.785Z,6.50
2019-02-04T02:53:29.536Z,6.57
2019-02-04T02:56:00.217Z,6.87
2019-02-04T02:58:31.062Z,7.37
2019-02-04T03:01:01.685Z,7.50
2019-02-04T03:03:32.366Z,6.80
2019-02-04T03:06:02.899Z,7.13
2019-02-04T03:08:33.639Z,7.90
2019-02-04T03:11:04.369Z,8.07
2019-02-04T03:13:35.144Z,6.83
2019-02-04T03:16:05.891Z,6.63
2019-02-04T03:18:36.857Z,7.47
2019-02-04T03:21:07.537Z,6.07
2019-02-04T03:23:38.255Z,7.40
2019-02-04T03:26:08.872Z,5.60
2019-02-04T03:28:39.564Z,6.63
2019-02-04T03:31:10.463Z,6.43
2019-02-04T03:33:41.156Z,6.40
2019-02-04T03:36:12.452Z,6.97
2019-02-04T03:38:43.094Z,7.90
2019-02-04T03:41:13.745Z,7.23
2019-02-04T03:43:45.279Z,6.83
2019-02-04T03:46:15.907Z,6.80
2019-02-04T03:48:46.538Z,8.20
2019-02-04T03:51:17.257Z,6.07
2019-02-04T03:53:48.044Z,6.70
2019-02-04T03:56:19.472Z,7.17
2019-02-04T03:58:50.174Z,7.23
2019-02-04T04:01:20.954Z,6.90
2019-02-04T04:03:51.590Z,7.07
2019-02-04T04:06:22.244Z,7.17
2019-02-04T04:08:53.423Z,6.43
2019-02-04T04:11:24.134Z,6.53
2019-02-04T04:13:54.878Z,6.77
2019-02-04T04:16:25.544Z,7.47
2019-02-04T04:18:56.122Z,7.23
2019-02-04T04:21:27.122Z,6.27
2019-02-04T04:23:57.820Z,7.23
2019-02-04T04:26:28.545Z,7.60
2019-02-04T04:28:59.447Z,6.33
2019-02-04T04:31:30.207Z,7.20
2019-02-04T04:34:00.818Z,6.60
2019-02-04T04:36:31.594Z,8.00
2019-02-04T04:39:02.261Z,6.33
2019-02-04T04:41:34.618Z,7.53
2019-02-04T04:44:05.195Z,7.87
2019-02-04T04:46:35.929Z,6.73
2019-02-04T04:49:06.856Z,7.90
2019-02-04T04:51:37.597Z,7.53
2019-02-04T04:54:08.271Z,7.50
2019-02-04T04:56:38.912Z,7.73
2019-02-04T04:59:09.617Z,7.57
2019-02-04T05:01:40.757Z,7.00
2019-02-04T05:04:11.694Z,7.27
2019-02-04T05:06:42.324Z,6.53
2019-02-04T05:09:12.946Z,7.90
2019-02-04T05:11:43.639Z,7.37
2019-02-04T05:14:14.680Z,8.53
2019-02-04T05:16:45.447Z,8.27
2019-02-04T05:19:16.172Z,8.10
2019-02-04T05:21:46.846Z,7.80
2019-02-04T05:24:17.642Z,7.77
2019-02-04T05:26:48.798Z,8.00
2019-02-04T05:29:19.703Z,7.77
2019-02-04T05:31:50.440Z,7.37
2019-02-04T05:34:21.104Z,7.27
2019-02-04T05:36:51.951Z,8.47
2019-02-04T05:39:22.978Z,7.43
2019-02-04T05:41:53.778Z,11.27
2019-02-04T05:44:24.850Z,8.33
2019-02-04T05:46:55.846Z,13.70
2019-02-04T05:49:26.585Z,8.97
2019-02-04T05:51:57.787Z,9.00
2019-02-04T05:54:28.495Z,8.83
2019-02-04T05:56:59.289Z,8.73
2019-02-04T05:59:30.040Z,9.00
2019-02-04T06:02:00.852Z,11.03
2019-02-04T06:04:31.674Z,9.37
2019-02-04T06:07:02.451Z,8.47
2019-02-04T06:09:33.107Z,10.43
2019-02-04T06:12:03.967Z,9.23
2019-02-04T06:14:35.255Z,8.33
2019-02-04T06:17:05.956Z,8.27
2019-02-04T06:19:36.592Z,10.93
2019-02-04T06:22:07.183Z,9.07
2019-02-04T06:24:37.798Z,7.37
2019-02-04T06:27:10.296Z,9.07
2019-02-04T06:29:40.884Z,7.70
2019-02-04T06:32:11.845Z,6.00
2019-02-04T06:34:42.541Z,8.30
2019-02-04T06:37:13.195Z,7.87
2019-02-04T06:39:43.913Z,10.17
2019-02-04T06:42:14.737Z,9.97
2019-02-04T06:44:45.292Z,13.17
2019-02-04T06:47:16.039Z,8.87
2019-02-04T06:49:46.727Z,9.53
2019-02-04T06:52:17.282Z,10.77
2019-02-04T06:54:48.126Z,9.37
2019-02-04T06:57:19.186Z,8.87
2019-02-04T06:59:49.855Z,10.93
2019-02-04T07:02:20.465Z,9.60
2019-02-04T07:04:51.203Z,8.57
2019-02-04T07:07:21.835Z,9.00
2019-02-04T07:09:52.665Z,9.40
2019-02-04T07:12:23.461Z,9.17
2019-02-04T07:14:54.131Z,7.77
2019-02-04T07:17:24.840Z,7.33
2019-02-04T07:19:55.458Z,7.80
2019-02-04T07:22:26.261Z,8.00
2019-02-04T07:24:57.313Z,7.63
2019-02-04T07:27:28.168Z,9.33
2019-02-04T07:29:58.925Z,8.00
2019-02-04T07:32:29.707Z,8.03
2019-02-04T07:35:00.400Z,8.50
2019-02-04T07:37:31.387Z,7.73
2019-02-04T07:40:02.099Z,8.23
2019-02-04T07:42:32.797Z,8.97
2019-02-04T07:45:04.639Z,7.57
2019-02-04T07:47:35.802Z,8.17
2019-02-04T07:50:07.471Z,6.70
2019-02-04T07:52:38.204Z,7.87
2019-02-04T07:55:09.081Z,8.33
2019-02-04T07:57:39.890Z,8.17
2019-02-04T08:00:20.241Z,7.80
2019-02-04T08:03:01.572Z,8.17
2019-02-04T08:05:32.414Z,8.03
2019-02-04T08:08:03.148Z,8.20
2019-02-04T08:10:34.265Z,7.67
2019-02-04T08:13:05.437Z,7.03
2019-02-04T08:15:37.874Z,7.30
2019-02-04T08:18:09.611Z,7.93
2019-02-04T08:20:40.514Z,7.77
2019-02-04T08:23:11.621Z,8.47
2019-02-04T08:25:43.753Z,7.90
2019-02-04T08:28:14.499Z,8.07
2019-02-04T08:30:45.309Z,7.87
2019-02-04T08:33:16.015Z,7.67
2019-02-04T08:35:46.760Z,7.57
2019-02-04T08:38:17.831Z,6.87
2019-02-04T08:40:48.938Z,6.97
2019-02-04T08:43:19.650Z,7.20
2019-02-04T08:45:50.586Z,8.87
2019-02-04T08:48:21.323Z,7.00
2019-02-04T08:50:52.732Z,6.73
2019-02-04T08:53:23.522Z,7.67
2019-02-04T08:55:54.308Z,7.77
2019-02-04T08:58:25.031Z,7.20
2019-02-04T09:00:56.821Z,7.37
2019-02-04T09:03:27.536Z,6.77
2019-02-04T09:05:59.279Z,7.77
2019-02-04T09:08:30.382Z,7.93
2019-02-04T09:11:01.092Z,7.00
2019-02-04T09:13:31.964Z,7.17
2019-02-04T09:16:02.733Z,7.50
2019-02-04T09:18:44.166Z,7.08
2019-02-04T09:21:05.753Z,7.55
2019-02-04T09:23:36.713Z,7.90
2019-02-04T09:26:07.344Z,7.20
2019-02-04T09:28:38.402Z,7.50
2019-02-04T09:31:09.231Z,6.53
2019-02-04T09:33:40.144Z,6.92
2019-02-04T09:36:10.681Z,7.05
2019-02-04T09:38:41.692Z,7.62
2019-02-04T09:41:12.315Z,6.90
2019-02-04T09:43:43.044Z,7.25
2019-02-04T09:46:13.705Z,7.55
2019-02-04T09:48:44.471Z,6.53
2019-02-04T09:51:15.245Z,7.15
2019-02-04T09:53:45.898Z,7.15
2019-02-04T09:56:16.580Z,7.15
2019-02-04T09:58:47.399Z,7.03
2019-02-04T10:01:18.146Z,7.35
2019-02-04T10:03:49.220Z,7.10
2019-02-04T10:06:19.782Z,7.45
2019-02-04T10:08:50.586Z,6.70
2019-02-04T10:11:21.360Z,7.15
2019-02-04T10:13:52.146Z,6.62
2019-02-04T10:16:22.926Z,6.65
2019-02-04T10:18:53.698Z,6.70
2019-02-04T10:21:24.472Z,7.12
2019-02-04T10:23:55.249Z,6.42
2019-02-04T10:26:26.123Z,6.95
2019-02-04T10:28:56.888Z,5.65
2019-02-04T10:31:27.817Z,6.37
2019-02-04T10:33:58.574Z,6.62
2019-02-04T10:36:29.207Z,6.15
2019-02-04T10:39:00.291Z,6.53
2019-02-04T10:41:31.038Z,7.20
2019-02-04T10:44:01.879Z,5.92
2019-02-04T10:46:32.722Z,6.45
2019-02-04T10:49:03.592Z,5.55
2019-02-04T10:51:34.823Z,5.30
2019-02-04T10:54:05.926Z,5.08
2019-02-04T10:56:36.982Z,5.50
2019-02-04T10:59:07.831Z,5.62
2019-02-04T11:01:38.658Z,6.03
2019-02-04T11:04:09.375Z,5.27
2019-02-04T11:06:40.250Z,4.87
2019-02-04T11:09:11.854Z,4.20
2019-02-04T11:11:42.595Z,4.23
2019-02-04T11:14:13.288Z,4.87
2019-02-04T11:16:44.249Z,4.00
2019-02-04T11:19:14.936Z,4.13
2019-02-04T11:21:45.755Z,5.10
2019-02-04T11:24:16.373Z,3.97
2019-02-04T11:26:47.015Z,4.70
2019-02-04T11:29:18.845Z,4.20
2019-02-04T11:31:49.739Z,4.20
2019-02-04T11:34:20.493Z,5.77
2019-02-04T11:36:51.204Z,6.43
2019-02-04T11:39:21.826Z,5.40
2019-02-04T11:41:52.566Z,3.63
2019-02-04T11:44:24.245Z,4.43
2019-02-04T11:46:56.027Z,4.40
2019-02-04T11:49:26.681Z,4.50
2019-02-04T11:51:57.429Z,4.30
2019-02-04T11:54:28.025Z,3.97
2019-02-04T11:56:59.057Z,3.50
2019-02-04T11:59:29.800Z,3.93
2019-02-04T12:02:00.591Z,4.40
2019-02-04T12:04:31.344Z,4.17
2019-02-04T12:07:02.134Z,4.73
2019-02-04T12:09:32.843Z,3.57
2019-02-04T12:12:03.753Z,4.43
2019-02-04T12:14:34.434Z,2.70
2019-02-04T12:17:05.289Z,2.00
2019-02-04T12:19:35.926Z,3.97
2019-02-04T12:22:06.654Z,2.37
2019-02-04T12:24:37.302Z,3.77
2019-02-04T12:27:08.098Z,2.40
2019-02-04T12:29:38.847Z,4.00
2019-02-04T12:32:09.555Z,2.70
2019-02-04T12:34:40.463Z,3.00
2019-02-04T12:37:11.514Z,2.67
2019-02-04T12:39:42.249Z,1.90
2019-02-04T12:42:12.890Z,3.10
2019-02-04T12:44:43.645Z,2.63
2019-02-04T12:47:14.676Z,2.63
2019-02-04T12:49:45.803Z,2.10
2019-02-04T12:52:16.479Z,3.17
2019-02-04T12:54:47.288Z,2.70
2019-02-04T12:57:18.090Z,2.33
2019-02-04T12:59:49.190Z,2.53
2019-02-04T13:02:20.443Z,2.60
2019-02-04T13:04:51.149Z,2.83
2019-02-04T13:07:22.227Z,3.07
2019-02-04T13:09:52.881Z,2.47
2019-02-04T13:12:23.671Z,2.43
2019-02-04T13:14:54.429Z,2.40
2019-02-04T13:17:26.935Z,2.37
2019-02-04T13:19:57.530Z,2.13
2019-02-04T13:22:28.153Z,2.10
2019-02-04T13:24:58.773Z,2.17
2019-02-04T13:27:29.744Z,2.13
2019-02-04T13:30:02.028Z,2.53
2019-02-04T13:32:34.182Z,2.80
2019-02-04T13:35:05.344Z,2.10
2019-02-04T13:37:36.374Z,2.23
2019-02-04T13:40:10.255Z,2.73
2019-02-04T13:42:41.374Z,2.37
2019-02-04T13:45:14.241Z,2.53
2019-02-04T13:47:45.311Z,2.50
2019-02-04T13:50:17.208Z,2.30
2019-02-04T13:52:48.581Z,2.17
2019-02-04T13:55:22.630Z,2.33
2019-02-04T13:57:53.714Z,2.60
2019-02-04T14:00:27.152Z,2.17
2019-02-04T14:03:00.170Z,2.97
2019-02-04T14:05:35.640Z,2.80
2019-02-04T14:08:08.283Z,3.03
2019-02-04T14:10:46.203Z,2.13
2019-02-04T14:13:20.700Z,2.73
2019-02-04T14:15:56.115Z,2.37
2019-02-04T14:18:27.897Z,2.87
2019-02-04T14:21:01.778Z,2.67
2019-02-04T14:23:33.089Z,3.07
2019-02-04T14:26:04.115Z,2.30
2019-02-04T14:28:35.791Z,3.47
2019-02-04T14:31:06.699Z,2.73
2019-02-04T14:33:37.551Z,3.03
2019-02-04T14:36:08.372Z,2.87
2019-02-04T14:38:39.077Z,3.30
2019-02-04T14:41:09.716Z,3.80
2019-02-04T14:43:54.023Z,3.60
2019-02-04T14:46:54.141Z,2.70
2019-02-04T14:50:12.565Z,3.03
2019-02-04T14:53:08.021Z,2.90
2019-02-04T14:56:11.684Z,3.30
2019-02-04T14:58:55.664Z,2.83
2019-02-04T15:02:02.377Z,3.30
2019-02-04T15:05:03.830Z,3.90
2019-02-04T15:07:56.862Z,3.03
2019-02-04T15:11:20.998Z,3.33
2019-02-04T15:14:28.645Z,5.30
2019-02-04T15:17:15.941Z,3.27
2019-02-04T15:20:21.545Z,3.97
2019-02-04T15:23:27.497Z,4.67
2019-02-04T15:26:54.369Z,4.70
2019-02-04T15:29:56.003Z,4.17
2019-02-04T15:32:53.163Z,5.43
2019-02-04T15:36:02.071Z,6.97
2019-02-04T15:38:56.705Z,5.37
2019-02-04T15:41:43.243Z,4.77
2019-02-04T15:44:37.625Z,5.77
2019-02-04T15:47:23.137Z,5.10
2019-02-04T15:50:35.094Z,5.60
2019-02-04T15:53:06.280Z,5.00
2019-02-04T15:55:39.890Z,4.50
2019-02-04T15:58:09.420Z,4.47
2019-02-04T16:00:40.284Z,5.37
2019-02-04T16:03:11.559Z,6.63
2019-02-04T16:05:42.135Z,4.77
2019-02-04T16:08:12.884Z,4.47
2019-02-04T16:10:43.926Z,5.23
2019-02-04T16:13:14.739Z,3.53
2019-02-04T16:15:46.006Z,4.97
2019-02-04T16:18:16.743Z,5.10
2019-02-04T16:20:47.552Z,4.90
2019-02-04T16:23:19.140Z,4.90
2019-02-04T16:25:52.676Z,3.53
2019-02-04T16:28:24.037Z,3.67
2019-02-04T16:30:54.928Z,3.70
2019-02-04T16:33:26.026Z,3.73
2019-02-04T16:35:56.863Z,3.87
2019-02-04T16:38:27.688Z,4.07
2019-02-04T16:41:19.032Z,3.57
2019-02-04T16:43:50.332Z,5.23
2019-02-04T16:46:23.424Z,4.87
2019-02-04T16:48:54.052Z,4.60
2019-02-04T16:51:24.658Z,3.07
2019-02-04T16:53:55.512Z,4.90
2019-02-04T16:56:26.174Z,5.07
2019-02-04T16:58:56.778Z,4.43
2019-02-04T17:01:28.722Z,4.43
2019-02-04T17:03:59.888Z,4.70
2019-02-04T17:06:30.448Z,5.70
2019-02-04T17:09:02.328Z,5.90
2019-02-04T17:11:34.726Z,5.23
2019-02-04T17:14:05.657Z,5.70
2019-02-04T17:16:36.905Z,6.17
2019-02-04T17:19:07.605Z,4.03
2019-02-04T17:21:38.306Z,7.17
2019-02-04T17:24:09.074Z,4.40
2019-02-04T17:26:40.260Z,5.30
2019-02-04T17:29:11.591Z,5.20
2019-02-04T17:31:42.405Z,6.50
2019-02-04T17:34:13.263Z,5.90
2019-02-04T17:36:44.051Z,5.77
2019-02-04T17:39:15.237Z,6.13
2019-02-04T17:41:46.022Z,6.37
2019-02-04T17:44:17.015Z,5.97
2019-02-04T17:46:47.761Z,5.63
2019-02-04T17:49:18.446Z,5.47
2019-02-04T17:51:49.184Z,6.60
2019-02-04T17:54:19.887Z,5.70
2019-02-04T17:56:50.591Z,5.83
2019-02-04T17:59:23.084Z,7.23
2019-02-04T18:01:53.631Z,6.30
2019-02-04T18:04:24.788Z,6.27
2019-02-04T18:06:55.495Z,6.50
2019-02-04T18:09:26.793Z,7.07
2019-02-04T18:11:57.380Z,5.23
2019-02-04T18:14:28.085Z,7.03
2019-02-04T18:16:58.880Z,8.03
2019-02-04T18:19:29.441Z,6.13
2019-02-04T18:22:00.469Z,6.93
2019-02-04T18:24:31.186Z,6.97
2019-02-04T18:27:02.264Z,5.93
2019-02-04T18:29:32.924Z,6.83
2019-02-04T18:32:04.034Z,5.67
2019-02-04T18:34:34.832Z,5.90
2019-02-04T18:37:05.507Z,5.50
2019-02-04T18:39:36.226Z,6.83
2019-02-04T18:42:06.941Z,6.93
2019-02-04T18:44:37.775Z,7.10
2019-02-04T18:47:11.168Z,7.23
2019-02-04T18:49:41.152Z,7.20
2019-02-04T18:52:11.876Z,6.10
2019-02-04T18:54:42.716Z,7.83
2019-02-04T18:57:13.538Z,6.90
2019-02-04T18:59:44.163Z,6.20
2019-02-04T19:02:14.849Z,4.47
2019-02-04T19:04:45.711Z,6.73
2019-02-04T19:07:16.358Z,5.90
2019-02-04T19:09:46.944Z,5.93
2019-02-04T19:12:17.848Z,6.17
2019-02-04T19:14:48.857Z,6.80
2019-02-04T19:17:21.035Z,5.87
2019-02-04T19:19:51.698Z,8.27
2019-02-04T19:22:23.560Z,7.53
2019-02-04T19:24:54.748Z,4.20
2019-02-04T19:27:25.871Z,8.80
2019-02-04T19:29:56.595Z,7.73
2019-02-04T19:32:27.624Z,8.23
2019-02-04T19:34:58.346Z,8.00
2019-02-04T19:37:29.035Z,7.40
2019-02-04T19:39:59.810Z,9.23
2019-02-04T19:42:30.658Z,7.53
2019-02-04T19:45:01.490Z,8.90
2019-02-04T19:47:32.271Z,10.17
2019-02-04T19:50:03.824Z,8.97
2019-02-04T19:52:34.868Z,8.87
2019-02-04T19:55:06.337Z,9.10
2019-02-04T19:57:37.129Z,7.17
2019-02-04T20:00:11.865Z,7.53
2019-02-04T20:02:42.768Z,9.17
2019-02-04T20:05:16.165Z,7.93
2019-02-04T20:07:46.991Z,8.77
2019-02-04T20:10:19.843Z,8.93
2019-02-04T20:12:50.567Z,11.63
2019-02-04T20:15:28.815Z,8.40
2019-02-04T20:17:59.692Z,10.30
2019-02-04T20:20:31.219Z,9.63
2019-02-04T20:23:01.777Z,9.10
2019-02-04T20:25:32.711Z,9.73
2019-02-04T20:28:03.866Z,10.73
2019-02-04T20:30:45.355Z,10.63
2019-02-04T20:33:10.783Z,12.13
2019-02-04T20:35:42.632Z,10.63
2019-02-04T20:38:13.554Z,12.90
2019-02-04T20:40:44.604Z,12.90
2019-02-04T20:43:15.379Z,10.30
2019-02-04T20:45:46.083Z,11.60
2019-02-04T20:48:16.857Z,10.73
2019-02-04T20:50:48.234Z,10.10
2019-02-04T20:53:18.882Z,11.27
2019-02-04T20:55:49.688Z,11.07
2019-02-04T20:58:20.242Z,12.57
2019-02-04T21:00:51.186Z,12.70
2019-02-04T21:03:21.888Z,12.57
2019-02-04T21:05:52.565Z,10.57
2019-02-04T21:08:24.539Z,12.27
2019-02-04T21:10:55.388Z,12.23
2019-02-04T21:13:26.026Z,12.63
2019-02-04T21:15:57.352Z,12.60
2019-02-04T21:18:28.159Z,11.87
2019-02-04T21:20:59.216Z,13.10
2019-02-04T21:23:35.357Z,10.77
2019-02-04T21:26:06.934Z,11.37
2019-02-04T21:28:38.276Z,12.43
2019-02-04T21:31:11.393Z,11.63
2019-02-04T21:33:42.440Z,13.20
2019-02-04T21:36:13.308Z,12.40
2019-02-04T21:38:44.451Z,12.37
2019-02-04T21:41:16.435Z,12.20
2019-02-04T21:43:48.028Z,12.70
2019-02-04T21:46:20.052Z,13.07
2019-02-04T21:48:51.740Z,12.90
2019-02-04T21:51:22.368Z,12.77
2019-02-04T21:54:04.827Z,12.00
2019-02-04T21:56:35.685Z,12.53
2019-02-04T21:59:06.480Z,14.37
2019-02-04T22:01:37.079Z,14.57
2019-02-04T22:04:07.777Z,12.90
2019-02-04T22:06:38.761Z,13.40
2019-02-04T22:09:10.886Z,14.13
2019-02-04T22:11:41.931Z,13.70
2019-02-04T22:14:13.073Z,11.83
2019-02-04T22:16:44.095Z,15.63
2019-02-04T22:19:15.110Z,13.60
2019-02-04T22:21:45.864Z,12.63
2019-02-04T22:24:16.901Z,13.03
2019-02-04T22:26:47.631Z,13.27
2019-02-04T22:29:18.593Z,13.63
2019-02-04T22:31:49.600Z,12.93
2019-02-04T22:34:20.686Z,14.00
2019-02-04T22:36:51.779Z,15.03
2019-02-04T22:39:22.521Z,12.20
2019-02-04T22:41:53.184Z,14.63
2019-02-04T22:44:23.966Z,12.63
2019-02-04T22:46:54.831Z,11.90
2019-02-04T22:49:25.616Z,12.17
2019-02-04T22:51:56.559Z,12.47
2019-02-04T22:54:27.181Z,12.67
2019-02-04T22:56:57.776Z,12.33
2019-02-04T22:59:28.500Z,12.77
2019-02-04T23:01:59.851Z,11.93
2019-02-04T23:04:30.745Z,11.00
2019-02-04T23:07:01.568Z,12.53
2019-02-04T23:09:32.285Z,12.00
2019-02-04T23:12:03.070Z,13.00
2019-02-04T23:14:33.801Z,10.97
2019-02-04T23:17:05.143Z,11.33
2019-02-04T23:19:35.755Z,12.27
2019-02-04T23:22:06.464Z,10.27
2019-02-04T23:24:38.992Z,10.17
2019-02-04T23:27:09.722Z,11.80
2019-02-04T23:29:40.969Z,11.13
2019-02-04T23:32:11.627Z,11.27
2019-02-04T23:34:42.295Z,12.80
2019-02-04T23:37:13.004Z,11.10
2019-02-04T23:39:43.695Z,11.27
2019-02-04T23:42:14.944Z,11.27
2019-02-04T23:44:45.679Z,11.73
2019-02-04T23:47:16.440Z,11.97
2019-02-04T23:49:47.254Z,7.03
2019-02-04T23:52:17.937Z,9.70
2019-02-04T23:54:48.827Z,11.17
2019-02-04T23:57:19.419Z,10.77
2019-02-04T23:59:50.179Z,11.00
